sensor_id;sensor_type;location;lat;lon;timestamp;temperature;humidity
69009;SHT31;56065;52.472;13.380;2023-06-22T00:01:16;22.62;76.66
69009;SHT31;56065;52.472;13.380;2023-06-22T00:03:42;22.56;76.49
69009;SHT31;56065;52.472;13.380;2023-06-22T00:06:07;22.57;76.39
69009;SHT31;56065;52.472;13.380;2023-06-22T00:08:32;22.53;76.67
69009;SHT31;56065;52.472;13.380;2023-06-22T00:10:58;22.45;77.28
69009;SHT31;56065;52.472;13.380;2023-06-22T00:13:23;22.42;77.57
69009;SHT31;56065;52.472;13.380;2023-06-22T00:15:48;22.42;77.45
69009;SHT31;56065;52.472;13.380;2023-06-22T00:18:14;22.38;77.36
69009;SHT31;56065;52.472;13.380;2023-06-22T00:20:41;22.36;77.30
69009;SHT31;56065;52.472;13.380;2023-06-22T00:23:06;22.35;77.04
69009;SHT31;56065;52.472;13.380;2023-06-22T00:25:36;22.34;77.40
69009;SHT31;56065;52.472;13.380;2023-06-22T00:28:02;22.29;77.39
69009;SHT31;56065;52.472;13.380;2023-06-22T00:30:29;22.29;76.96
69009;SHT31;56065;52.472;13.380;2023-06-22T00:32:54;22.28;77.47
69009;SHT31;56065;52.472;13.380;2023-06-22T00:35:19;22.24;77.45
69009;SHT31;56065;52.472;13.380;2023-06-22T00:37:45;22.18;77.66
69009;SHT31;56065;52.472;13.380;2023-06-22T00:40:10;22.15;77.66
69009;SHT31;56065;52.472;13.380;2023-06-22T00:42:40;22.11;77.87
69009;SHT31;56065;52.472;13.380;2023-06-22T00:45:07;22.12;77.66
69009;SHT31;56065;52.472;13.380;2023-06-22T00:47:34;22.12;77.81
69009;SHT31;56065;52.472;13.380;2023-06-22T00:49:59;22.07;78.03
69009;SHT31;56065;52.472;13.380;2023-06-22T00:52:26;22.00;78.12
69009;SHT31;56065;52.472;13.380;2023-06-22T00:54:54;22.05;78.05
69009;SHT31;56065;52.472;13.380;2023-06-22T00:57:21;22.05;78.02
69009;SHT31;56065;52.472;13.380;2023-06-22T00:59:48;22.07;78.05
69009;SHT31;56065;52.472;13.380;2023-06-22T01:02:13;22.05;78.38
69009;SHT31;56065;52.472;13.380;2023-06-22T01:04:39;22.01;78.31
69009;SHT31;56065;52.472;13.380;2023-06-22T01:10:25;22.02;78.88
69009;SHT31;56065;52.472;13.380;2023-06-22T01:12:55;21.97;79.01
69009;SHT31;56065;52.472;13.380;2023-06-22T01:15:29;22.00;78.50
69009;SHT31;56065;52.472;13.380;2023-06-22T01:17:56;21.98;78.91
69009;SHT31;56065;52.472;13.380;2023-06-22T01:20:23;21.90;78.84
69009;SHT31;56065;52.472;13.380;2023-06-22T01:23:07;21.87;78.77
69009;SHT31;56065;52.472;13.380;2023-06-22T01:26:06;21.83;79.08
69009;SHT31;56065;52.472;13.380;2023-06-22T01:28:50;21.77;79.41
69009;SHT31;56065;52.472;13.380;2023-06-22T01:31:20;21.71;79.68
69009;SHT31;56065;52.472;13.380;2023-06-22T01:33:50;21.70;79.61
69009;SHT31;56065;52.472;13.380;2023-06-22T01:36:17;21.71;79.56
69009;SHT31;56065;52.472;13.380;2023-06-22T01:38:43;21.68;79.90
69009;SHT31;56065;52.472;13.380;2023-06-22T01:41:10;21.64;80.05
69009;SHT31;56065;52.472;13.380;2023-06-22T01:43:36;21.64;80.27
69009;SHT31;56065;52.472;13.380;2023-06-22T01:46:02;21.64;80.02
69009;SHT31;56065;52.472;13.380;2023-06-22T01:48:28;21.63;80.06
69009;SHT31;56065;52.472;13.380;2023-06-22T01:50:54;21.61;80.17
69009;SHT31;56065;52.472;13.380;2023-06-22T01:53:24;21.64;80.07
69009;SHT31;56065;52.472;13.380;2023-06-22T01:55:49;21.66;80.37
69009;SHT31;56065;52.472;13.380;2023-06-22T01:58:15;21.64;80.54
69009;SHT31;56065;52.472;13.380;2023-06-22T02:00:45;21.71;80.40
69009;SHT31;56065;52.472;13.380;2023-06-22T02:03:23;21.70;80.44
69009;SHT31;56065;52.472;13.380;2023-06-22T02:05:58;21.73;80.54
69009;SHT31;56065;52.472;13.380;2023-06-22T02:08:30;21.77;80.54
69009;SHT31;56065;52.472;13.380;2023-06-22T02:10:58;21.76;80.41
69009;SHT31;56065;52.472;13.380;2023-06-22T02:13:25;21.77;80.56
69009;SHT31;56065;52.472;13.380;2023-06-22T02:15:51;21.71;80.67
69009;SHT31;56065;52.472;13.380;2023-06-22T02:18:16;21.73;80.44
69009;SHT31;56065;52.472;13.380;2023-06-22T02:20:42;21.70;81.27
69009;SHT31;56065;52.472;13.380;2023-06-22T02:23:07;21.71;81.16
69009;SHT31;56065;52.472;13.380;2023-06-22T02:25:34;21.66;81.07
69009;SHT31;56065;52.472;13.380;2023-06-22T02:28:00;21.68;80.90
69009;SHT31;56065;52.472;13.380;2023-06-22T02:30:25;21.68;81.03
69009;SHT31;56065;52.472;13.380;2023-06-22T02:32:50;21.67;81.00
69009;SHT31;56065;52.472;13.380;2023-06-22T02:35:25;21.67;81.19
69009;SHT31;56065;52.472;13.380;2023-06-22T02:37:50;21.70;81.50
69009;SHT31;56065;52.472;13.380;2023-06-22T02:40:17;21.68;81.48
69009;SHT31;56065;52.472;13.380;2023-06-22T02:42:42;21.71;81.53
69009;SHT31;56065;52.472;13.380;2023-06-22T02:45:08;21.73;81.75
69009;SHT31;56065;52.472;13.380;2023-06-22T02:47:33;21.73;81.78
69009;SHT31;56065;52.472;13.380;2023-06-22T02:49:59;21.78;81.90
69009;SHT31;56065;52.472;13.380;2023-06-22T02:52:25;21.78;82.08
69009;SHT31;56065;52.472;13.380;2023-06-22T02:54:50;21.78;82.10
69009;SHT31;56065;52.472;13.380;2023-06-22T02:57:16;21.83;81.91
69009;SHT31;56065;52.472;13.380;2023-06-22T02:59:42;21.90;81.67
69009;SHT31;56065;52.472;13.380;2023-06-22T03:02:08;21.95;81.50
69009;SHT31;56065;52.472;13.380;2023-06-22T03:04:34;21.98;81.59
69009;SHT31;56065;52.472;13.380;2023-06-22T03:06:59;21.97;81.50
69009;SHT31;56065;52.472;13.380;2023-06-22T03:09:27;21.94;81.77
69009;SHT31;56065;52.472;13.380;2023-06-22T03:11:53;21.94;81.74
69009;SHT31;56065;52.472;13.380;2023-06-22T03:14:19;21.93;81.84
69009;SHT31;56065;52.472;13.380;2023-06-22T03:16:44;21.93;81.66
69009;SHT31;56065;52.472;13.380;2023-06-22T03:19:09;21.88;81.59
69009;SHT31;56065;52.472;13.380;2023-06-22T03:21:41;21.83;81.96
69009;SHT31;56065;52.472;13.380;2023-06-22T03:24:07;21.80;81.99
69009;SHT31;56065;52.472;13.380;2023-06-22T03:26:33;21.76;82.19
69009;SHT31;56065;52.472;13.380;2023-06-22T03:28:59;21.73;82.24
69009;SHT31;56065;52.472;13.380;2023-06-22T03:31:25;21.73;82.15
69009;SHT31;56065;52.472;13.380;2023-06-22T03:33:50;21.71;82.40
69009;SHT31;56065;52.472;13.380;2023-06-22T03:36:16;21.68;82.30
69009;SHT31;56065;52.472;13.380;2023-06-22T03:38:49;21.67;82.31
69009;SHT31;56065;52.472;13.380;2023-06-22T03:41:15;21.67;82.20
69009;SHT31;56065;52.472;13.380;2023-06-22T03:43:40;21.71;82.14
69009;SHT31;56065;52.472;13.380;2023-06-22T03:46:06;21.70;82.08
69009;SHT31;56065;52.472;13.380;2023-06-22T03:48:31;21.70;82.09
69009;SHT31;56065;52.472;13.380;2023-06-22T03:50:58;21.64;82.03
69009;SHT31;56065;52.472;13.380;2023-06-22T03:53:23;21.63;82.00
69009;SHT31;56065;52.472;13.380;2023-06-22T03:55:50;21.58;81.97
69009;SHT31;56065;52.472;13.380;2023-06-22T03:58:16;21.54;81.99
69009;SHT31;56065;52.472;13.380;2023-06-22T04:00:47;21.60;81.94
69009;SHT31;56065;52.472;13.380;2023-06-22T04:03:13;21.57;81.87
69009;SHT31;56065;52.472;13.380;2023-06-22T04:05:39;21.58;81.77
69009;SHT31;56065;52.472;13.380;2023-06-22T04:08:05;21.58;81.82
69009;SHT31;56065;52.472;13.380;2023-06-22T04:10:30;21.61;81.79
69009;SHT31;56065;52.472;13.380;2023-06-22T04:12:56;21.63;81.32
69009;SHT31;56065;52.472;13.380;2023-06-22T04:15:21;21.63;81.25
69009;SHT31;56065;52.472;13.380;2023-06-22T04:17:47;21.61;81.29
69009;SHT31;56065;52.472;13.380;2023-06-22T04:20:12;21.67;81.19
69009;SHT31;56065;52.472;13.380;2023-06-22T04:22:37;21.73;81.19
69009;SHT31;56065;52.472;13.380;2023-06-22T04:25:03;21.74;80.89
69009;SHT31;56065;52.472;13.380;2023-06-22T04:27:28;21.78;80.93
69009;SHT31;56065;52.472;13.380;2023-06-22T04:29:54;21.85;80.84
69009;SHT31;56065;52.472;13.380;2023-06-22T04:32:19;21.91;80.51
69009;SHT31;56065;52.472;13.380;2023-06-22T04:34:45;21.97;80.21
69009;SHT31;56065;52.472;13.380;2023-06-22T04:37:10;22.01;80.24
69009;SHT31;56065;52.472;13.380;2023-06-22T04:39:41;22.07;80.13
69009;SHT31;56065;52.472;13.380;2023-06-22T04:42:06;22.18;80.44
69009;SHT31;56065;52.472;13.380;2023-06-22T04:44:31;22.28;79.79
69009;SHT31;56065;52.472;13.380;2023-06-22T04:46:58;22.42;79.19
69009;SHT31;56065;52.472;13.380;2023-06-22T04:49:29;22.49;78.29
69009;SHT31;56065;52.472;13.380;2023-06-22T04:52:02;22.52;78.14
69009;SHT31;56065;52.472;13.380;2023-06-22T04:54:28;22.72;77.99
69009;SHT31;56065;52.472;13.380;2023-06-22T04:56:54;22.86;77.36
69009;SHT31;56065;52.472;13.380;2023-06-22T04:59:22;22.95;76.80
69009;SHT31;56065;52.472;13.380;2023-06-22T05:01:58;22.95;76.47
69009;SHT31;56065;52.472;13.380;2023-06-22T05:04:25;23.06;76.72
69009;SHT31;56065;52.472;13.380;2023-06-22T05:06:51;23.03;75.61
69009;SHT31;56065;52.472;13.380;2023-06-22T05:09:16;23.07;75.79
69009;SHT31;56065;52.472;13.380;2023-06-22T05:11:42;23.13;75.56
69009;SHT31;56065;52.472;13.380;2023-06-22T05:14:08;23.17;75.30
69009;SHT31;56065;52.472;13.380;2023-06-22T05:16:33;23.27;74.88
69009;SHT31;56065;52.472;13.380;2023-06-22T05:18:58;23.30;74.45
69009;SHT31;56065;52.472;13.380;2023-06-22T05:21:26;23.35;74.47
69009;SHT31;56065;52.472;13.380;2023-06-22T05:23:52;23.35;74.68
69009;SHT31;56065;52.472;13.380;2023-06-22T05:26:21;23.48;74.32
69009;SHT31;56065;52.472;13.380;2023-06-22T05:28:47;23.57;74.48
69009;SHT31;56065;52.472;13.380;2023-06-22T05:31:14;23.72;73.84
69009;SHT31;56065;52.472;13.380;2023-06-22T05:33:41;23.98;72.89
69009;SHT31;56065;52.472;13.380;2023-06-22T05:36:07;24.13;73.38
69009;SHT31;56065;52.472;13.380;2023-06-22T05:38:33;24.37;72.15
69009;SHT31;56065;52.472;13.380;2023-06-22T05:40:58;24.56;71.75
69009;SHT31;56065;52.472;13.380;2023-06-22T05:43:23;24.66;71.74
69009;SHT31;56065;52.472;13.380;2023-06-22T05:45:49;24.73;71.72
69009;SHT31;56065;52.472;13.380;2023-06-22T05:48:14;24.87;71.58
69009;SHT31;56065;52.472;13.380;2023-06-22T05:50:39;24.85;71.95
69009;SHT31;56065;52.472;13.380;2023-06-22T05:53:04;24.80;71.70
69009;SHT31;56065;52.472;13.380;2023-06-22T05:55:33;24.80;71.68
69009;SHT31;56065;52.472;13.380;2023-06-22T05:57:58;24.87;71.88
69009;SHT31;56065;52.472;13.380;2023-06-22T06:00:24;24.87;71.00
69009;SHT31;56065;52.472;13.380;2023-06-22T06:02:49;24.94;71.19
69009;SHT31;56065;52.472;13.380;2023-06-22T06:05:15;24.91;71.49
69009;SHT31;56065;52.472;13.380;2023-06-22T06:07:41;24.99;71.44
69009;SHT31;56065;52.472;13.380;2023-06-22T06:10:07;24.99;71.85
69009;SHT31;56065;52.472;13.380;2023-06-22T06:12:33;25.10;71.24
69009;SHT31;56065;52.472;13.380;2023-06-22T06:14:58;25.05;70.88
69009;SHT31;56065;52.472;13.380;2023-06-22T06:17:24;25.04;70.89
69009;SHT31;56065;52.472;13.380;2023-06-22T06:19:49;25.05;71.18
69009;SHT31;56065;52.472;13.380;2023-06-22T06:22:14;25.08;71.05
69009;SHT31;56065;52.472;13.380;2023-06-22T06:24:40;25.18;70.91
69009;SHT31;56065;52.472;13.380;2023-06-22T06:27:05;25.75;70.32
69009;SHT31;56065;52.472;13.380;2023-06-22T06:29:31;26.56;69.26
69009;SHT31;56065;52.472;13.380;2023-06-22T06:31:57;27.42;67.16
69009;SHT31;56065;52.472;13.380;2023-06-22T06:34:22;28.24;65.21
69009;SHT31;56065;52.472;13.380;2023-06-22T06:36:47;29.00;64.41
69009;SHT31;56065;52.472;13.380;2023-06-22T06:39:13;29.78;62.77
69009;SHT31;56065;52.472;13.380;2023-06-22T06:41:38;29.93;59.32
69009;SHT31;56065;52.472;13.380;2023-06-22T06:44:03;30.33;58.59
69009;SHT31;56065;52.472;13.380;2023-06-22T06:46:29;30.02;58.48
69009;SHT31;56065;52.472;13.380;2023-06-22T06:48:54;30.15;58.63
69009;SHT31;56065;52.472;13.380;2023-06-22T06:51:19;30.17;59.26
69009;SHT31;56065;52.472;13.380;2023-06-22T06:53:45;30.63;58.09
69009;SHT31;56065;52.472;13.380;2023-06-22T06:56:10;30.98;56.64
69009;SHT31;56065;52.472;13.380;2023-06-22T06:58:36;30.98;56.81
69009;SHT31;56065;52.472;13.380;2023-06-22T07:01:02;31.41;55.58
69009;SHT31;56065;52.472;13.380;2023-06-22T07:03:28;31.52;55.00
69009;SHT31;56065;52.472;13.380;2023-06-22T07:05:53;32.00;54.92
69009;SHT31;56065;52.472;13.380;2023-06-22T07:08:18;32.44;54.15
69009;SHT31;56065;52.472;13.380;2023-06-22T07:10:44;32.82;54.37
69009;SHT31;56065;52.472;13.380;2023-06-22T07:13:09;33.42;53.11
69009;SHT31;56065;52.472;13.380;2023-06-22T07:15:34;34.10;51.65
69009;SHT31;56065;52.472;13.380;2023-06-22T07:18:00;34.34;50.06
69009;SHT31;56065;52.472;13.380;2023-06-22T07:20:25;34.15;51.74
69009;SHT31;56065;52.472;13.380;2023-06-22T07:22:51;34.21;50.91
69009;SHT31;56065;52.472;13.380;2023-06-22T07:25:16;34.63;50.70
69009;SHT31;56065;52.472;13.380;2023-06-22T07:27:58;34.62;50.36
69009;SHT31;56065;52.472;13.380;2023-06-22T07:30:24;34.01;49.44
69009;SHT31;56065;52.472;13.380;2023-06-22T07:32:49;33.22;50.26
69009;SHT31;56065;52.472;13.380;2023-06-22T07:35:14;32.78;51.80
69009;SHT31;56065;52.472;13.380;2023-06-22T07:37:41;32.54;51.38
69009;SHT31;56065;52.472;13.380;2023-06-22T07:40:07;32.41;52.66
69009;SHT31;56065;52.472;13.380;2023-06-22T07:42:33;32.21;53.03
69009;SHT31;56065;52.472;13.380;2023-06-22T07:44:59;32.17;52.81
69009;SHT31;56065;52.472;13.380;2023-06-22T07:47:24;32.09;53.75
69009;SHT31;56065;52.472;13.380;2023-06-22T07:49:57;32.47;52.52
69009;SHT31;56065;52.472;13.380;2023-06-22T07:52:24;32.35;51.78
69009;SHT31;56065;52.472;13.380;2023-06-22T07:54:50;32.23;53.81
69009;SHT31;56065;52.472;13.380;2023-06-22T07:57:15;32.09;51.28
69009;SHT31;56065;52.472;13.380;2023-06-22T07:59:41;31.92;51.35
69009;SHT31;56065;52.472;13.380;2023-06-22T08:02:06;30.92;51.98
69009;SHT31;56065;52.472;13.380;2023-06-22T08:04:33;30.95;53.46
69009;SHT31;56065;52.472;13.380;2023-06-22T08:07:00;30.83;53.56
69009;SHT31;56065;52.472;13.380;2023-06-22T08:09:27;30.40;52.85
69009;SHT31;56065;52.472;13.380;2023-06-22T08:11:52;30.41;52.76
69009;SHT31;56065;52.472;13.380;2023-06-22T08:14:19;30.03;53.90
69009;SHT31;56065;52.472;13.380;2023-06-22T08:16:44;29.92;53.93
69009;SHT31;56065;52.472;13.380;2023-06-22T08:19:09;29.92;55.02
69009;SHT31;56065;52.472;13.380;2023-06-22T08:21:35;30.08;55.70
69009;SHT31;56065;52.472;13.380;2023-06-22T08:24:01;30.15;55.17
69009;SHT31;56065;52.472;13.380;2023-06-22T08:26:27;30.30;53.97
69009;SHT31;56065;52.472;13.380;2023-06-22T08:28:52;30.17;53.50
69009;SHT31;56065;52.472;13.380;2023-06-22T08:31:18;30.03;53.37
69009;SHT31;56065;52.472;13.380;2023-06-22T08:33:43;30.03;54.25
69009;SHT31;56065;52.472;13.380;2023-06-22T08:36:10;30.01;52.76
69009;SHT31;56065;52.472;13.380;2023-06-22T08:38:38;30.02;52.42
69009;SHT31;56065;52.472;13.380;2023-06-22T08:41:03;29.93;53.63
69009;SHT31;56065;52.472;13.380;2023-06-22T08:43:29;30.30;55.87
69009;SHT31;56065;52.472;13.380;2023-06-22T08:45:54;30.84;51.93
69009;SHT31;56065;52.472;13.380;2023-06-22T08:48:20;31.58;51.66
69009;SHT31;56065;52.472;13.380;2023-06-22T08:50:45;31.79;50.69
69009;SHT31;56065;52.472;13.380;2023-06-22T08:53:10;32.40;49.19
69009;SHT31;56065;52.472;13.380;2023-06-22T08:55:36;33.32;49.30
69009;SHT31;56065;52.472;13.380;2023-06-22T08:58:01;34.07;46.37
69009;SHT31;56065;52.472;13.380;2023-06-22T09:00:27;34.20;46.78
69009;SHT31;56065;52.472;13.380;2023-06-22T09:02:54;33.57;49.39
69009;SHT31;56065;52.472;13.380;2023-06-22T09:05:24;33.60;47.01
69009;SHT31;56065;52.472;13.380;2023-06-22T09:07:50;33.25;46.57
69009;SHT31;56065;52.472;13.380;2023-06-22T09:10:15;32.92;47.44
69009;SHT31;56065;52.472;13.380;2023-06-22T09:12:43;33.15;50.86
69009;SHT31;56065;52.472;13.380;2023-06-22T09:15:09;33.50;46.89
69009;SHT31;56065;52.472;13.380;2023-06-22T09:17:35;33.63;45.70
69009;SHT31;56065;52.472;13.380;2023-06-22T09:20:02;33.56;45.87
69009;SHT31;56065;52.472;13.380;2023-06-22T09:22:31;33.39;45.66
69009;SHT31;56065;52.472;13.380;2023-06-22T09:24:57;33.47;44.77
69009;SHT31;56065;52.472;13.380;2023-06-22T09:27:24;33.36;46.59
69009;SHT31;56065;52.472;13.380;2023-06-22T09:29:50;33.70;45.01
69009;SHT31;56065;52.472;13.380;2023-06-22T09:32:15;33.70;46.38
69009;SHT31;56065;52.472;13.380;2023-06-22T09:34:40;33.76;46.51
69009;SHT31;56065;52.472;13.380;2023-06-22T09:37:06;33.47;45.69
69009;SHT31;56065;52.472;13.380;2023-06-22T09:39:31;33.22;46.74
69009;SHT31;56065;52.472;13.380;2023-06-22T09:42:00;33.13;46.95
69009;SHT31;56065;52.472;13.380;2023-06-22T09:44:26;33.16;48.06
69009;SHT31;56065;52.472;13.380;2023-06-22T09:46:51;33.05;47.42
69009;SHT31;56065;52.472;13.380;2023-06-22T09:49:16;33.13;47.10
69009;SHT31;56065;52.472;13.380;2023-06-22T09:51:42;33.29;46.63
69009;SHT31;56065;52.472;13.380;2023-06-22T09:54:07;32.98;47.93
69009;SHT31;56065;52.472;13.380;2023-06-22T09:56:32;33.53;48.95
69009;SHT31;56065;52.472;13.380;2023-06-22T09:58:58;33.93;45.91
69009;SHT31;56065;52.472;13.380;2023-06-22T10:01:23;33.90;46.20
69009;SHT31;56065;52.472;13.380;2023-06-22T10:03:49;33.60;45.91
69009;SHT31;56065;52.472;13.380;2023-06-22T10:06:15;33.01;47.60
69009;SHT31;56065;52.472;13.380;2023-06-22T10:08:40;33.39;47.07
69009;SHT31;56065;52.472;13.380;2023-06-22T10:11:06;34.29;46.52
69009;SHT31;56065;52.472;13.380;2023-06-22T10:13:31;35.53;46.32
69009;SHT31;56065;52.472;13.380;2023-06-22T10:15:57;36.27;45.12
69009;SHT31;56065;52.472;13.380;2023-06-22T10:18:22;37.37;42.39
69009;SHT31;56065;52.472;13.380;2023-06-22T10:20:49;37.21;41.92
69009;SHT31;56065;52.472;13.380;2023-06-22T10:23:16;37.08;43.05
69009;SHT31;56065;52.472;13.380;2023-06-22T10:25:41;37.20;43.39
69009;SHT31;56065;52.472;13.380;2023-06-22T10:28:07;37.41;42.79
69009;SHT31;56065;52.472;13.380;2023-06-22T10:30:32;37.77;41.57
69009;SHT31;56065;52.472;13.380;2023-06-22T10:32:58;37.75;43.03
69009;SHT31;56065;52.472;13.380;2023-06-22T10:35:23;38.19;41.79
69009;SHT31;56065;52.472;13.380;2023-06-22T10:37:48;38.39;41.99
69009;SHT31;56065;52.472;13.380;2023-06-22T10:40:16;39.61;40.75
69009;SHT31;56065;52.472;13.380;2023-06-22T10:42:42;40.44;39.94
69009;SHT31;56065;52.472;13.380;2023-06-22T10:45:08;41.83;38.48
69009;SHT31;56065;52.472;13.380;2023-06-22T10:47:34;42.27;37.44
69009;SHT31;56065;52.472;13.380;2023-06-22T10:50:00;41.98;36.62
69009;SHT31;56065;52.472;13.380;2023-06-22T10:52:25;42.65;37.59
69009;SHT31;56065;52.472;13.380;2023-06-22T10:54:50;42.95;36.15
69009;SHT31;56065;52.472;13.380;2023-06-22T10:57:16;42.82;35.35
69009;SHT31;56065;52.472;13.380;2023-06-22T10:59:41;42.65;35.77
69009;SHT31;56065;52.472;13.380;2023-06-22T11:02:06;42.19;36.22
69009;SHT31;56065;52.472;13.380;2023-06-22T11:04:32;42.41;36.70
69009;SHT31;56065;52.472;13.380;2023-06-22T11:06:57;42.12;36.69
69009;SHT31;56065;52.472;13.380;2023-06-22T11:09:23;42.50;36.97
69009;SHT31;56065;52.472;13.380;2023-06-22T11:11:49;42.74;35.90
69009;SHT31;56065;52.472;13.380;2023-06-22T11:14:15;42.41;35.41
69009;SHT31;56065;52.472;13.380;2023-06-22T11:16:40;42.21;35.79
69009;SHT31;56065;52.472;13.380;2023-06-22T11:19:06;42.05;35.82
69009;SHT31;56065;52.472;13.380;2023-06-22T11:21:31;41.66;36.55
69009;SHT31;56065;52.472;13.380;2023-06-22T11:23:57;41.47;35.95
69009;SHT31;56065;52.472;13.380;2023-06-22T11:26:24;41.53;36.12
69009;SHT31;56065;52.472;13.380;2023-06-22T11:28:49;41.66;36.00
69009;SHT31;56065;52.472;13.380;2023-06-22T11:31:14;41.60;36.27
69009;SHT31;56065;52.472;13.380;2023-06-22T11:33:40;41.59;36.00
69009;SHT31;56065;52.472;13.380;2023-06-22T11:36:05;41.63;36.66
69009;SHT31;56065;52.472;13.380;2023-06-22T11:38:31;41.29;36.28
69009;SHT31;56065;52.472;13.380;2023-06-22T11:40:58;41.19;36.32
69009;SHT31;56065;52.472;13.380;2023-06-22T11:43:23;41.14;36.94
69009;SHT31;56065;52.472;13.380;2023-06-22T11:45:48;40.83;36.92
69009;SHT31;56065;52.472;13.380;2023-06-22T11:48:14;41.18;37.29
69009;SHT31;56065;52.472;13.380;2023-06-22T11:50:39;41.29;36.84
69009;SHT31;56065;52.472;13.380;2023-06-22T11:53:04;41.82;36.34
69009;SHT31;56065;52.472;13.380;2023-06-22T11:55:30;41.89;36.32
69009;SHT31;56065;52.472;13.380;2023-06-22T11:57:57;41.65;35.47
69009;SHT31;56065;52.472;13.380;2023-06-22T12:00:28;41.59;35.45
69009;SHT31;56065;52.472;13.380;2023-06-22T12:02:55;40.94;35.98
69009;SHT31;56065;52.472;13.380;2023-06-22T12:05:21;40.65;37.69
69009;SHT31;56065;52.472;13.380;2023-06-22T12:07:48;40.37;38.43
69009;SHT31;56065;52.472;13.380;2023-06-22T12:10:14;40.16;36.38
69009;SHT31;56065;52.472;13.380;2023-06-22T12:12:40;39.25;37.43
69009;SHT31;56065;52.472;13.380;2023-06-22T12:15:05;39.62;37.40
69009;SHT31;56065;52.472;13.380;2023-06-22T12:17:31;39.69;37.96
69009;SHT31;56065;52.472;13.380;2023-06-22T12:19:56;40.39;38.25
69009;SHT31;56065;52.472;13.380;2023-06-22T12:22:22;40.91;38.22
69009;SHT31;56065;52.472;13.380;2023-06-22T12:24:47;40.94;36.26
69009;SHT31;56065;52.472;13.380;2023-06-22T12:27:13;40.10;37.15
69009;SHT31;56065;52.472;13.380;2023-06-22T12:29:41;39.99;36.99
69009;SHT31;56065;52.472;13.380;2023-06-22T12:32:07;40.85;37.14
69009;SHT31;56065;52.472;13.380;2023-06-22T12:34:32;40.65;36.94
69009;SHT31;56065;52.472;13.380;2023-06-22T12:36:57;41.02;37.34
69009;SHT31;56065;52.472;13.380;2023-06-22T12:39:23;41.06;36.84
69009;SHT31;56065;52.472;13.380;2023-06-22T12:41:48;40.47;37.33
69009;SHT31;56065;52.472;13.380;2023-06-22T12:44:14;39.97;37.78
69009;SHT31;56065;52.472;13.380;2023-06-22T12:46:39;39.82;38.58
69009;SHT31;56065;52.472;13.380;2023-06-22T12:49:04;40.03;38.73
69009;SHT31;56065;52.472;13.380;2023-06-22T12:51:30;39.86;38.18
69009;SHT31;56065;52.472;13.380;2023-06-22T12:53:56;40.05;39.03
69009;SHT31;56065;52.472;13.380;2023-06-22T12:56:21;40.19;38.68
69009;SHT31;56065;52.472;13.380;2023-06-22T12:58:47;40.47;37.79
69009;SHT31;56065;52.472;13.380;2023-06-22T13:01:12;40.65;37.87
69009;SHT31;56065;52.472;13.380;2023-06-22T13:03:37;40.44;38.45
69009;SHT31;56065;52.472;13.380;2023-06-22T13:06:03;39.82;38.70
69009;SHT31;56065;52.472;13.380;2023-06-22T13:08:29;40.07;39.10
69009;SHT31;56065;52.472;13.380;2023-06-22T13:10:54;40.60;38.23
69009;SHT31;56065;52.472;13.380;2023-06-22T13:13:23;40.88;38.20
69009;SHT31;56065;52.472;13.380;2023-06-22T13:15:50;40.98;37.98
69009;SHT31;56065;52.472;13.380;2023-06-22T13:18:15;40.64;37.73
69009;SHT31;56065;52.472;13.380;2023-06-22T13:20:41;40.47;38.36
69009;SHT31;56065;52.472;13.380;2023-06-22T13:23:09;40.06;38.46
69009;SHT31;56065;52.472;13.380;2023-06-22T13:25:34;39.90;38.84
69009;SHT31;56065;52.472;13.380;2023-06-22T13:28:00;39.89;38.71
69009;SHT31;56065;52.472;13.380;2023-06-22T13:30:25;40.03;39.13
69009;SHT31;56065;52.472;13.380;2023-06-22T13:32:50;40.21;38.96
69009;SHT31;56065;52.472;13.380;2023-06-22T13:35:16;40.37;38.84
69009;SHT31;56065;52.472;13.380;2023-06-22T13:37:41;40.48;37.77
69009;SHT31;56065;52.472;13.380;2023-06-22T13:40:07;40.21;37.82
69009;SHT31;56065;52.472;13.380;2023-06-22T13:42:33;40.10;39.00
69009;SHT31;56065;52.472;13.380;2023-06-22T13:44:59;39.61;38.77
69009;SHT31;56065;52.472;13.380;2023-06-22T13:47:24;39.69;38.26
69009;SHT31;56065;52.472;13.380;2023-06-22T13:49:49;38.96;39.00
69009;SHT31;56065;52.472;13.380;2023-06-22T13:52:15;38.83;38.89
69009;SHT31;56065;52.472;13.380;2023-06-22T13:54:40;38.57;39.73
69009;SHT31;56065;52.472;13.380;2023-06-22T13:57:06;38.16;40.05
69009;SHT31;56065;52.472;13.380;2023-06-22T13:59:31;37.81;40.45
69009;SHT31;56065;52.472;13.380;2023-06-22T14:01:57;37.84;40.44
69009;SHT31;56065;52.472;13.380;2023-06-22T14:04:25;37.53;41.84
69009;SHT31;56065;52.472;13.380;2023-06-22T14:06:50;37.65;40.78
69009;SHT31;56065;52.472;13.380;2023-06-22T14:09:16;37.42;41.19
69009;SHT31;56065;52.472;13.380;2023-06-22T14:11:41;37.42;41.73
69009;SHT31;56065;52.472;13.380;2023-06-22T14:14:06;37.28;41.33
69009;SHT31;56065;52.472;13.380;2023-06-22T14:16:32;37.16;41.08
69009;SHT31;56065;52.472;13.380;2023-06-22T14:18:57;37.14;41.83
69009;SHT31;56065;52.472;13.380;2023-06-22T14:21:23;36.91;42.36
69009;SHT31;56065;52.472;13.380;2023-06-22T14:23:48;36.66;43.23
69009;SHT31;56065;52.472;13.380;2023-06-22T14:26:18;36.66;42.89
69009;SHT31;56065;52.472;13.380;2023-06-22T14:28:45;36.63;42.73
69009;SHT31;56065;52.472;13.380;2023-06-22T14:31:15;36.75;44.20
69009;SHT31;56065;52.472;13.380;2023-06-22T14:33:45;36.79;42.06
69009;SHT31;56065;52.472;13.380;2023-06-22T14:36:10;36.24;42.98
69009;SHT31;56065;52.472;13.380;2023-06-22T14:38:36;35.49;43.14
69009;SHT31;56065;52.472;13.380;2023-06-22T14:41:01;35.19;44.12
69009;SHT31;56065;52.472;13.380;2023-06-22T14:43:26;34.98;45.32
69009;SHT31;56065;52.472;13.380;2023-06-22T14:45:52;35.17;44.31
69009;SHT31;56065;52.472;13.380;2023-06-22T14:48:17;35.04;45.11
69009;SHT31;56065;52.472;13.380;2023-06-22T14:50:42;35.27;44.58
69009;SHT31;56065;52.472;13.380;2023-06-22T14:53:08;35.16;44.86
69009;SHT31;56065;52.472;13.380;2023-06-22T14:55:33;35.19;44.66
69009;SHT31;56065;52.472;13.380;2023-06-22T14:57:58;35.13;45.05
69009;SHT31;56065;52.472;13.380;2023-06-22T15:00:24;35.09;44.87
69009;SHT31;56065;52.472;13.380;2023-06-22T15:02:49;34.86;45.09
69009;SHT31;56065;52.472;13.380;2023-06-22T15:05:14;34.81;44.67
69009;SHT31;56065;52.472;13.380;2023-06-22T15:07:40;34.73;44.69
69009;SHT31;56065;52.472;13.380;2023-06-22T15:10:06;34.45;45.19
69009;SHT31;56065;52.472;13.380;2023-06-22T15:12:31;34.34;45.11